Terminal Aerodrome Forecast
Issued by NWS Cleveland, OH

Home | Current Version | Previous Version | Graphics & Text | Print | Product List | Glossary On
Versions: 1 2 3 4 5 6 7 8 9 10 11 12 13 14 15 16 17 18 19
000
FTUS41 KCLE 030500
TAFYNG
TAF
KYNG 030537Z 0306/0406 16004KT P6SM FEW080 SCT250
     FM031600 22008KT P6SM SCT060 BKN250
     FM040100 17005KT P6SM FEW100 SCT250=

USA.gov is the U.S. government's official web portal to all federal, state and local government web resources and services.